Search for airport 
image banner adimage banner adimage banner ad
image banner ad

0CL0 - Yosemite Hidden Lake Ranch

Located in Raymond, United States

ICAO - 0CL0, IATA -

Data provided by Airmate  

General information

Coordinates: N37°7'5" W119°54'48"
Elevation is 500 feet MSL.
Magnetic variation is 15° East
View others Airports in California

Operational data

Special qualification required
Current time UTC:
Current local time:
Weather at : KMAE - Madera Muni ( 23 km )
METAR: KMAE 211053Z AUTO 34005KT 10SM CLR 19/11 A2980 RMK AO2 SLP088 T01940111
View NOTAMs / SUP AIP / TFR affecting this airport [VIEW]
Communications frequencies: [VIEW]

Runways:

RWY identifierQFULength (ft)Width (ft)SurfaceLDA (ft)
17372075EARTH
35372075EARTH

Airport contact information

Address: Raymond United States

Satellite view of 0CL0